sensor_id;sensor_type;location;lat;lon;timestamp;temperature;humidity
20858;DHT22;10589;53.636;10.012;2024-03-22T04:47:13;9.40;99.90
20858;DHT22;10589;53.636;10.012;2024-03-22T04:49:38;9.50;99.90
20858;DHT22;10589;53.636;10.012;2024-03-22T04:52:04;9.50;99.90
20858;DHT22;10589;53.636;10.012;2024-03-22T04:54:31;9.50;99.90
20858;DHT22;10589;53.636;10.012;2024-03-22T04:56:56;9.40;99.90
20858;DHT22;10589;53.636;10.012;2024-03-22T04:59:22;9.50;99.90
20858;DHT22;10589;53.636;10.012;2024-03-22T05:01:48;9.50;99.90
20858;DHT22;10589;53.636;10.012;2024-03-22T05:04:13;9.50;99.90
20858;DHT22;10589;53.636;10.012;2024-03-22T05:06:39;9.50;99.90
20858;DHT22;10589;53.636;10.012;2024-03-22T05:09:04;9.50;99.90
20858;DHT22;10589;53.636;10.012;2024-03-22T05:11:30;9.50;99.90
20858;DHT22;10589;53.636;10.012;2024-03-22T05:13:57;9.60;99.90
20858;DHT22;10589;53.636;10.012;2024-03-22T05:16:22;9.60;99.90
20858;DHT22;10589;53.636;10.012;2024-03-22T05:18:49;9.50;99.90
20858;DHT22;10589;53.636;10.012;2024-03-22T05:21:14;9.50;99.90
20858;DHT22;10589;53.636;10.012;2024-03-22T05:23:40;9.50;99.90
20858;DHT22;10589;53.636;10.012;2024-03-22T05:26:05;9.60;99.90
20858;DHT22;10589;53.636;10.012;2024-03-22T05:28:31;9.60;99.90
20858;DHT22;10589;53.636;10.012;2024-03-22T05:30:56;9.60;99.90
20858;DHT22;10589;53.636;10.012;2024-03-22T05:33:22;9.70;99.90
20858;DHT22;10589;53.636;10.012;2024-03-22T05:35:48;9.70;99.90
20858;DHT22;10589;53.636;10.012;2024-03-22T05:38:13;9.70;99.90
20858;DHT22;10589;53.636;10.012;2024-03-22T05:40:39;9.70;99.90
20858;DHT22;10589;53.636;10.012;2024-03-22T05:43:04;9.70;99.90
20858;DHT22;10589;53.636;10.012;2024-03-22T05:45:30;9.70;99.90
20858;DHT22;10589;53.636;10.012;2024-03-22T05:47:56;9.70;99.90
20858;DHT22;10589;53.636;10.012;2024-03-22T05:50:21;9.70;99.90
20858;DHT22;10589;53.636;10.012;2024-03-22T05:52:47;9.80;99.90
20858;DHT22;10589;53.636;10.012;2024-03-22T05:55:12;9.80;99.90
20858;DHT22;10589;53.636;10.012;2024-03-22T05:57:39;9.80;99.90
20858;DHT22;10589;53.636;10.012;2024-03-22T06:00:07;9.90;99.90
20858;DHT22;10589;53.636;10.012;2024-03-22T06:02:33;9.90;99.90
20858;DHT22;10589;53.636;10.012;2024-03-22T06:04:59;9.90;99.90
20858;DHT22;10589;53.636;10.012;2024-03-22T06:07:24;9.90;99.90
20858;DHT22;10589;53.636;10.012;2024-03-22T06:09:52;9.90;99.90
20858;DHT22;10589;53.636;10.012;2024-03-22T06:12:18;9.90;99.90
20858;DHT22;10589;53.636;10.012;2024-03-22T06:14:44;9.90;99.90
20858;DHT22;10589;53.636;10.012;2024-03-22T06:17:10;9.90;99.90
20858;DHT22;10589;53.636;10.012;2024-03-22T06:19:36;10.00;99.90
20858;DHT22;10589;53.636;10.012;2024-03-22T06:22:02;10.00;99.90
20858;DHT22;10589;53.636;10.012;2024-03-22T06:24:28;10.10;99.90
20858;DHT22;10589;53.636;10.012;2024-03-22T06:26:54;10.20;99.90
20858;DHT22;10589;53.636;10.012;2024-03-22T06:29:19;10.20;99.90
20858;DHT22;10589;53.636;10.012;2024-03-22T06:31:45;10.20;99.90
20858;DHT22;10589;53.636;10.012;2024-03-22T06:34:11;10.20;99.90
20858;DHT22;10589;53.636;10.012;2024-03-22T06:36:36;10.20;99.90
20858;DHT22;10589;53.636;10.012;2024-03-22T06:39:02;10.30;99.90
20858;DHT22;10589;53.636;10.012;2024-03-22T06:41:32;10.30;99.90
20858;DHT22;10589;53.636;10.012;2024-03-22T06:43:58;10.30;99.90
20858;DHT22;10589;53.636;10.012;2024-03-22T06:46:23;10.40;99.90
20858;DHT22;10589;53.636;10.012;2024-03-22T06:48:50;10.40;99.90
20858;DHT22;10589;53.636;10.012;2024-03-22T06:51:16;10.40;99.90
20858;DHT22;10589;53.636;10.012;2024-03-22T06:53:42;10.40;99.90
20858;DHT22;10589;53.636;10.012;2024-03-22T06:56:07;10.40;99.90
20858;DHT22;10589;53.636;10.012;2024-03-22T06:58:38;10.50;99.90
20858;DHT22;10589;53.636;10.012;2024-03-22T07:01:03;10.50;99.90
20858;DHT22;10589;53.636;10.012;2024-03-22T07:03:29;10.50;99.90
20858;DHT22;10589;53.636;10.012;2024-03-22T07:05:55;10.50;99.90
20858;DHT22;10589;53.636;10.012;2024-03-22T07:08:20;10.50;99.90
20858;DHT22;10589;53.636;10.012;2024-03-22T07:10:46;10.50;99.90
20858;DHT22;10589;53.636;10.012;2024-03-22T07:13:12;10.50;99.90
20858;DHT22;10589;53.636;10.012;2024-03-22T07:15:37;10.60;99.90
20858;DHT22;10589;53.636;10.012;2024-03-22T07:18:03;10.60;99.90
20858;DHT22;10589;53.636;10.012;2024-03-22T07:20:30;10.60;99.90
20858;DHT22;10589;53.636;10.012;2024-03-22T07:22:55;10.60;99.90
20858;DHT22;10589;53.636;10.012;2024-03-22T07:25:21;10.60;99.90
20858;DHT22;10589;53.636;10.012;2024-03-22T07:27:46;10.60;99.90
20858;DHT22;10589;53.636;10.012;2024-03-22T07:30:14;10.70;99.90
20858;DHT22;10589;53.636;10.012;2024-03-22T07:32:40;10.70;99.90
20858;DHT22;10589;53.636;10.012;2024-03-22T07:35:05;10.80;99.90
20858;DHT22;10589;53.636;10.012;2024-03-22T07:37:32;10.80;99.90
20858;DHT22;10589;53.636;10.012;2024-03-22T07:39:59;10.70;99.90
20858;DHT22;10589;53.636;10.012;2024-03-22T07:42:25;10.70;99.90
20858;DHT22;10589;53.636;10.012;2024-03-22T07:44:50;10.80;99.90
20858;DHT22;10589;53.636;10.012;2024-03-22T07:47:16;10.80;99.90
20858;DHT22;10589;53.636;10.012;2024-03-22T07:49:43;10.70;99.90
20858;DHT22;10589;53.636;10.012;2024-03-22T07:52:09;10.70;99.90
20858;DHT22;10589;53.636;10.012;2024-03-22T07:54:35;10.80;99.90
20858;DHT22;10589;53.636;10.012;2024-03-22T07:57:01;10.80;99.90
20858;DHT22;10589;53.636;10.012;2024-03-22T07:59:27;10.90;99.90
20858;DHT22;10589;53.636;10.012;2024-03-22T08:01:53;10.80;99.90
20858;DHT22;10589;53.636;10.012;2024-03-22T08:04:19;10.80;99.90
20858;DHT22;10589;53.636;10.012;2024-03-22T08:06:46;10.80;99.90
20858;DHT22;10589;53.636;10.012;2024-03-22T08:09:11;10.80;99.90
20858;DHT22;10589;53.636;10.012;2024-03-22T08:11:37;10.80;99.90
20858;DHT22;10589;53.636;10.012;2024-03-22T08:14:02;10.80;99.90
20858;DHT22;10589;53.636;10.012;2024-03-22T08:16:32;10.80;99.90
20858;DHT22;10589;53.636;10.012;2024-03-22T08:18:57;10.90;99.90
20858;DHT22;10589;53.636;10.012;2024-03-22T08:21:24;10.80;99.90
20858;DHT22;10589;53.636;10.012;2024-03-22T08:23:50;10.90;99.90
20858;DHT22;10589;53.636;10.012;2024-03-22T08:26:17;10.80;99.90
20858;DHT22;10589;53.636;10.012;2024-03-22T08:28:42;10.80;99.90
20858;DHT22;10589;53.636;10.012;2024-03-22T08:31:08;10.70;99.90
20858;DHT22;10589;53.636;10.012;2024-03-22T08:33:33;10.70;99.90
20858;DHT22;10589;53.636;10.012;2024-03-22T08:36:00;10.70;99.90
20858;DHT22;10589;53.636;10.012;2024-03-22T08:38:26;10.60;99.90
20858;DHT22;10589;53.636;10.012;2024-03-22T08:40:52;10.60;99.90
20858;DHT22;10589;53.636;10.012;2024-03-22T08:43:18;10.50;99.90
20858;DHT22;10589;53.636;10.012;2024-03-22T08:45:44;10.50;99.90
20858;DHT22;10589;53.636;10.012;2024-03-22T08:48:09;10.60;99.90
20858;DHT22;10589;53.636;10.012;2024-03-22T08:50:37;10.50;99.90
20858;DHT22;10589;53.636;10.012;2024-03-22T08:53:02;10.50;99.90
20858;DHT22;10589;53.636;10.012;2024-03-22T08:55:30;10.50;99.90
20858;DHT22;10589;53.636;10.012;2024-03-22T08:57:56;10.50;99.90
20858;DHT22;10589;53.636;10.012;2024-03-22T09:00:22;10.50;99.90
20858;DHT22;10589;53.636;10.012;2024-03-22T09:02:47;10.50;99.90
20858;DHT22;10589;53.636;10.012;2024-03-22T09:05:13;10.50;99.90
20858;DHT22;10589;53.636;10.012;2024-03-22T09:07:38;10.50;99.90
20858;DHT22;10589;53.636;10.012;2024-03-22T09:10:05;10.50;99.90
20858;DHT22;10589;53.636;10.012;2024-03-22T09:12:31;10.50;99.90
20858;DHT22;10589;53.636;10.012;2024-03-22T09:14:57;10.50;99.90
20858;DHT22;10589;53.636;10.012;2024-03-22T09:17:23;10.50;99.90
20858;DHT22;10589;53.636;10.012;2024-03-22T09:19:48;10.50;99.90
20858;DHT22;10589;53.636;10.012;2024-03-22T09:22:14;10.50;99.90
20858;DHT22;10589;53.636;10.012;2024-03-22T09:24:40;10.50;99.90
20858;DHT22;10589;53.636;10.012;2024-03-22T09:27:06;10.50;99.90
20858;DHT22;10589;53.636;10.012;2024-03-22T09:29:34;10.50;99.90
20858;DHT22;10589;53.636;10.012;2024-03-22T09:32:00;10.50;99.90
20858;DHT22;10589;53.636;10.012;2024-03-22T09:34:25;10.50;99.90
20858;DHT22;10589;53.636;10.012;2024-03-22T09:36:51;10.60;99.90
20858;DHT22;10589;53.636;10.012;2024-03-22T09:39:16;10.50;99.90
20858;DHT22;10589;53.636;10.012;2024-03-22T09:41:43;10.50;99.90
20858;DHT22;10589;53.636;10.012;2024-03-22T09:44:13;10.60;99.90
20858;DHT22;10589;53.636;10.012;2024-03-22T09:46:42;10.60;99.90
20858;DHT22;10589;53.636;10.012;2024-03-22T09:49:09;10.60;99.90
20858;DHT22;10589;53.636;10.012;2024-03-22T09:51:36;10.60;99.90
20858;DHT22;10589;53.636;10.012;2024-03-22T09:54:02;10.60;99.90
20858;DHT22;10589;53.636;10.012;2024-03-22T09:56:30;10.60;99.90
20858;DHT22;10589;53.636;10.012;2024-03-22T09:58:57;10.60;99.90
20858;DHT22;10589;53.636;10.012;2024-03-22T10:01:24;10.60;99.90
20858;DHT22;10589;53.636;10.012;2024-03-22T10:03:51;10.60;99.90
20858;DHT22;10589;53.636;10.012;2024-03-22T10:06:17;10.60;99.90
20858;DHT22;10589;53.636;10.012;2024-03-22T10:08:44;10.60;99.90
20858;DHT22;10589;53.636;10.012;2024-03-22T10:11:10;10.50;99.90
20858;DHT22;10589;53.636;10.012;2024-03-22T10:13:35;10.50;99.90
20858;DHT22;10589;53.636;10.012;2024-03-22T10:16:01;10.60;99.90
20858;DHT22;10589;53.636;10.012;2024-03-22T10:18:27;10.60;99.90
20858;DHT22;10589;53.636;10.012;2024-03-22T10:21:05;10.60;99.90
20858;DHT22;10589;53.636;10.012;2024-03-22T10:23:31;10.60;99.90
20858;DHT22;10589;53.636;10.012;2024-03-22T10:25:58;10.60;99.90
20858;DHT22;10589;53.636;10.012;2024-03-22T10:28:27;10.60;99.90
20858;DHT22;10589;53.636;10.012;2024-03-22T10:30:53;10.70;99.90
20858;DHT22;10589;53.636;10.012;2024-03-22T10:33:20;10.70;99.90
20858;DHT22;10589;53.636;10.012;2024-03-22T10:35:53;10.70;99.90
20858;DHT22;10589;53.636;10.012;2024-03-22T10:38:20;10.70;99.90
20858;DHT22;10589;53.636;10.012;2024-03-22T10:40:46;10.80;99.90
20858;DHT22;10589;53.636;10.012;2024-03-22T10:43:16;10.80;99.90
20858;DHT22;10589;53.636;10.012;2024-03-22T10:45:42;10.70;99.90
20858;DHT22;10589;53.636;10.012;2024-03-22T10:48:11;10.70;99.90
20858;DHT22;10589;53.636;10.012;2024-03-22T10:50:41;10.70;99.90
20858;DHT22;10589;53.636;10.012;2024-03-22T10:53:16;10.80;99.90
20858;DHT22;10589;53.636;10.012;2024-03-22T10:55:46;10.80;99.90
20858;DHT22;10589;53.636;10.012;2024-03-22T10:58:17;10.80;99.90
20858;DHT22;10589;53.636;10.012;2024-03-22T11:00:44;10.70;99.90
20858;DHT22;10589;53.636;10.012;2024-03-22T11:03:10;10.70;99.90
20858;DHT22;10589;53.636;10.012;2024-03-22T11:05:48;10.70;99.90
20858;DHT22;10589;53.636;10.012;2024-03-22T11:08:23;10.60;99.90
20858;DHT22;10589;53.636;10.012;2024-03-22T11:10:49;10.60;99.90
20858;DHT22;10589;53.636;10.012;2024-03-22T11:13:16;10.70;99.90
20858;DHT22;10589;53.636;10.012;2024-03-22T11:15:42;10.60;99.90
20858;DHT22;10589;53.636;10.012;2024-03-22T11:18:08;10.70;99.90
20858;DHT22;10589;53.636;10.012;2024-03-22T11:20:38;10.70;99.90
20858;DHT22;10589;53.636;10.012;2024-03-22T11:23:04;10.70;99.90
20858;DHT22;10589;53.636;10.012;2024-03-22T11:25:34;10.60;99.90
20858;DHT22;10589;53.636;10.012;2024-03-22T11:28:00;10.60;99.90
20858;DHT22;10589;53.636;10.012;2024-03-22T11:30:28;10.60;99.90
20858;DHT22;10589;53.636;10.012;2024-03-22T11:32:54;10.60;99.90
20858;DHT22;10589;53.636;10.012;2024-03-22T11:35:23;10.60;99.90
20858;DHT22;10589;53.636;10.012;2024-03-22T11:37:51;10.60;99.90
20858;DHT22;10589;53.636;10.012;2024-03-22T11:40:16;10.50;99.90
20858;DHT22;10589;53.636;10.012;2024-03-22T11:42:45;10.50;99.90
20858;DHT22;10589;53.636;10.012;2024-03-22T11:45:12;10.50;99.90
20858;DHT22;10589;53.636;10.012;2024-03-22T11:47:39;10.50;99.90
20858;DHT22;10589;53.636;10.012;2024-03-22T11:50:05;10.50;99.90
20858;DHT22;10589;53.636;10.012;2024-03-22T11:52:31;10.50;99.90
20858;DHT22;10589;53.636;10.012;2024-03-22T11:54:57;10.50;99.90
20858;DHT22;10589;53.636;10.012;2024-03-22T11:57:23;10.60;99.90
20858;DHT22;10589;53.636;10.012;2024-03-22T11:59:50;10.60;99.90
20858;DHT22;10589;53.636;10.012;2024-03-22T12:02:15;10.50;99.90
20858;DHT22;10589;53.636;10.012;2024-03-22T12:04:47;10.50;99.90
20858;DHT22;10589;53.636;10.012;2024-03-22T12:07:13;10.60;99.90
20858;DHT22;10589;53.636;10.012;2024-03-22T12:09:43;10.60;99.90
20858;DHT22;10589;53.636;10.012;2024-03-22T12:12:10;10.60;99.90
20858;DHT22;10589;53.636;10.012;2024-03-22T12:14:36;10.60;99.90
20858;DHT22;10589;53.636;10.012;2024-03-22T12:17:02;10.60;99.90
20858;DHT22;10589;53.636;10.012;2024-03-22T12:19:28;10.60;99.90
20858;DHT22;10589;53.636;10.012;2024-03-22T12:21:53;10.60;99.90
20858;DHT22;10589;53.636;10.012;2024-03-22T12:24:19;10.70;99.90
20858;DHT22;10589;53.636;10.012;2024-03-22T12:26:45;10.70;99.90
20858;DHT22;10589;53.636;10.012;2024-03-22T12:29:12;10.60;99.90
20858;DHT22;10589;53.636;10.012;2024-03-22T12:31:38;10.60;99.90
20858;DHT22;10589;53.636;10.012;2024-03-22T12:34:04;10.70;99.90
20858;DHT22;10589;53.636;10.012;2024-03-22T12:36:29;10.70;99.90
20858;DHT22;10589;53.636;10.012;2024-03-22T12:38:55;10.70;99.90
20858;DHT22;10589;53.636;10.012;2024-03-22T12:41:20;10.80;99.90
20858;DHT22;10589;53.636;10.012;2024-03-22T12:43:46;10.70;99.90
20858;DHT22;10589;53.636;10.012;2024-03-22T12:46:11;10.70;99.90
20858;DHT22;10589;53.636;10.012;2024-03-22T12:48:37;10.60;99.90
20858;DHT22;10589;53.636;10.012;2024-03-22T12:51:03;10.70;99.90
20858;DHT22;10589;53.636;10.012;2024-03-22T12:53:30;10.70;99.90
20858;DHT22;10589;53.636;10.012;2024-03-22T12:55:56;10.70;99.90
20858;DHT22;10589;53.636;10.012;2024-03-22T12:58:21;10.60;99.90
20858;DHT22;10589;53.636;10.012;2024-03-22T13:00:47;10.60;99.90
20858;DHT22;10589;53.636;10.012;2024-03-22T13:03:13;10.60;99.90
20858;DHT22;10589;53.636;10.012;2024-03-22T13:05:40;10.60;99.90
20858;DHT22;10589;53.636;10.012;2024-03-22T13:08:06;10.60;99.90
20858;DHT22;10589;53.636;10.012;2024-03-22T13:10:31;10.60;99.90
20858;DHT22;10589;53.636;10.012;2024-03-22T13:12:57;10.70;99.90
20858;DHT22;10589;53.636;10.012;2024-03-22T13:15:23;10.70;99.90
20858;DHT22;10589;53.636;10.012;2024-03-22T13:17:48;10.70;99.90
20858;DHT22;10589;53.636;10.012;2024-03-22T13:20:14;10.60;99.90
20858;DHT22;10589;53.636;10.012;2024-03-22T13:22:41;10.50;99.90
20858;DHT22;10589;53.636;10.012;2024-03-22T13:25:06;10.30;99.90
20858;DHT22;10589;53.636;10.012;2024-03-22T13:27:35;10.30;99.90
20858;DHT22;10589;53.636;10.012;2024-03-22T13:30:02;10.20;99.90
20858;DHT22;10589;53.636;10.012;2024-03-22T13:32:28;10.20;99.90
20858;DHT22;10589;53.636;10.012;2024-03-22T13:34:53;10.20;99.90
20858;DHT22;10589;53.636;10.012;2024-03-22T13:37:19;10.20;99.90
20858;DHT22;10589;53.636;10.012;2024-03-22T13:39:49;10.10;99.90
20858;DHT22;10589;53.636;10.012;2024-03-22T13:42:15;10.10;99.90
20858;DHT22;10589;53.636;10.012;2024-03-22T13:44:41;10.10;99.90
20858;DHT22;10589;53.636;10.012;2024-03-22T13:47:07;10.10;99.90
20858;DHT22;10589;53.636;10.012;2024-03-22T13:49:32;10.00;99.90
20858;DHT22;10589;53.636;10.012;2024-03-22T13:51:58;10.10;99.90
20858;DHT22;10589;53.636;10.012;2024-03-22T13:54:27;10.00;99.90
20858;DHT22;10589;53.636;10.012;2024-03-22T13:56:52;10.10;99.90
20858;DHT22;10589;53.636;10.012;2024-03-22T13:59:18;10.10;99.90
20858;DHT22;10589;53.636;10.012;2024-03-22T14:01:44;10.20;99.90
20858;DHT22;10589;53.636;10.012;2024-03-22T14:04:12;10.30;99.90
20858;DHT22;10589;53.636;10.012;2024-03-22T14:06:38;10.30;99.90
20858;DHT22;10589;53.636;10.012;2024-03-22T14:09:04;10.30;99.90
20858;DHT22;10589;53.636;10.012;2024-03-22T14:11:33;10.30;99.90
20858;DHT22;10589;53.636;10.012;2024-03-22T14:13:58;10.30;99.90
20858;DHT22;10589;53.636;10.012;2024-03-22T14:16:24;10.30;99.90
20858;DHT22;10589;53.636;10.012;2024-03-22T14:18:50;10.30;99.90
20858;DHT22;10589;53.636;10.012;2024-03-22T14:21:16;10.30;99.90
20858;DHT22;10589;53.636;10.012;2024-03-22T14:23:49;10.30;99.90
20858;DHT22;10589;53.636;10.012;2024-03-22T14:26:15;10.20;99.90
20858;DHT22;10589;53.636;10.012;2024-03-22T14:28:42;10.10;99.90
20858;DHT22;10589;53.636;10.012;2024-03-22T14:31:08;10.10;99.90
20858;DHT22;10589;53.636;10.012;2024-03-22T14:33:38;10.10;99.90
20858;DHT22;10589;53.636;10.012;2024-03-22T14:36:05;10.00;99.90
20858;DHT22;10589;53.636;10.012;2024-03-22T14:38:31;9.90;99.90
20858;DHT22;10589;53.636;10.012;2024-03-22T14:40:57;9.90;99.90
20858;DHT22;10589;53.636;10.012;2024-03-22T14:43:24;9.90;99.90
20858;DHT22;10589;53.636;10.012;2024-03-22T14:45:56;9.80;99.90
20858;DHT22;10589;53.636;10.012;2024-03-22T14:48:22;9.80;99.90
20858;DHT22;10589;53.636;10.012;2024-03-22T14:50:48;9.70;99.90
20858;DHT22;10589;53.636;10.012;2024-03-22T14:53:15;9.70;99.90
20858;DHT22;10589;53.636;10.012;2024-03-22T14:55:57;9.60;99.90
20858;DHT22;10589;53.636;10.012;2024-03-22T14:58:33;9.50;99.90
20858;DHT22;10589;53.636;10.012;2024-03-22T15:01:01;9.60;99.90
20858;DHT22;10589;53.636;10.012;2024-03-22T15:03:27;9.60;99.90
20858;DHT22;10589;53.636;10.012;2024-03-22T15:05:57;9.60;99.90
20858;DHT22;10589;53.636;10.012;2024-03-22T15:08:23;9.60;99.90
20858;DHT22;10589;53.636;10.012;2024-03-22T15:10:49;9.70;99.90
20858;DHT22;10589;53.636;10.012;2024-03-22T15:13:16;9.70;99.90
20858;DHT22;10589;53.636;10.012;2024-03-22T15:15:42;9.60;99.90
20858;DHT22;10589;53.636;10.012;2024-03-22T15:18:08;9.60;99.90
20858;DHT22;10589;53.636;10.012;2024-03-22T15:20:34;9.50;99.90
20858;DHT22;10589;53.636;10.012;2024-03-22T15:23:01;9.50;99.90
20858;DHT22;10589;53.636;10.012;2024-03-22T15:25:27;9.70;99.90
20858;DHT22;10589;53.636;10.012;2024-03-22T15:27:53;9.70;99.90
20858;DHT22;10589;53.636;10.012;2024-03-22T15:30:19;9.80;99.90
20858;DHT22;10589;53.636;10.012;2024-03-22T15:32:45;9.80;99.90
20858;DHT22;10589;53.636;10.012;2024-03-22T15:35:11;9.80;99.90
20858;DHT22;10589;53.636;10.012;2024-03-22T15:37:38;9.80;99.90
20858;DHT22;10589;53.636;10.012;2024-03-22T15:40:08;9.80;99.90
20858;DHT22;10589;53.636;10.012;2024-03-22T15:42:34;10.00;99.90
20858;DHT22;10589;53.636;10.012;2024-03-22T15:45:00;10.10;99.90
20858;DHT22;10589;53.636;10.012;2024-03-22T15:47:29;10.20;99.90
20858;DHT22;10589;53.636;10.012;2024-03-22T15:49:55;10.20;99.90
20858;DHT22;10589;53.636;10.012;2024-03-22T15:52:21;10.20;99.90
20858;DHT22;10589;53.636;10.012;2024-03-22T15:54:47;10.20;99.90
20858;DHT22;10589;53.636;10.012;2024-03-22T15:57:12;10.30;99.90
20858;DHT22;10589;53.636;10.012;2024-03-22T15:59:38;10.30;99.90
20858;DHT22;10589;53.636;10.012;2024-03-22T16:02:04;10.20;99.90
20858;DHT22;10589;53.636;10.012;2024-03-22T16:04:30;10.20;99.90
20858;DHT22;10589;53.636;10.012;2024-03-22T16:06:57;10.00;99.90
20858;DHT22;10589;53.636;10.012;2024-03-22T16:09:23;10.00;99.90
20858;DHT22;10589;53.636;10.012;2024-03-22T16:11:49;9.90;99.90
20858;DHT22;10589;53.636;10.012;2024-03-22T16:14:14;9.90;99.90
20858;DHT22;10589;53.636;10.012;2024-03-22T16:16:40;9.80;99.90
20858;DHT22;10589;53.636;10.012;2024-03-22T16:19:06;9.80;99.90
20858;DHT22;10589;53.636;10.012;2024-03-22T16:21:31;9.80;99.90
20858;DHT22;10589;53.636;10.012;2024-03-22T16:23:57;9.80;99.90
20858;DHT22;10589;53.636;10.012;2024-03-22T16:26:23;9.90;99.90
20858;DHT22;10589;53.636;10.012;2024-03-22T16:28:48;9.80;99.90
20858;DHT22;10589;53.636;10.012;2024-03-22T16:31:14;9.70;99.90
20858;DHT22;10589;53.636;10.012;2024-03-22T16:33:39;9.70;99.90
20858;DHT22;10589;53.636;10.012;2024-03-22T16:36:05;9.60;99.90
20858;DHT22;10589;53.636;10.012;2024-03-22T16:38:31;9.50;99.90
20858;DHT22;10589;53.636;10.012;2024-03-22T16:40:56;9.40;99.90
20858;DHT22;10589;53.636;10.012;2024-03-22T16:43:22;9.40;99.90
20858;DHT22;10589;53.636;10.012;2024-03-22T16:45:47;9.30;99.90
20858;DHT22;10589;53.636;10.012;2024-03-22T16:48:13;9.40;99.90
20858;DHT22;10589;53.636;10.012;2024-03-22T16:50:38;9.20;99.90
20858;DHT22;10589;53.636;10.012;2024-03-22T16:53:06;9.20;99.90
20858;DHT22;10589;53.636;10.012;2024-03-22T16:55:31;9.10;99.90
20858;DHT22;10589;53.636;10.012;2024-03-22T16:57:57;9.10;99.90
20858;DHT22;10589;53.636;10.012;2024-03-22T17:00:26;9.10;99.90
20858;DHT22;10589;53.636;10.012;2024-03-22T17:02:51;9.00;99.90
20858;DHT22;10589;53.636;10.012;2024-03-22T17:05:17;9.20;99.90
20858;DHT22;10589;53.636;10.012;2024-03-22T17:07:43;9.20;99.90
20858;DHT22;10589;53.636;10.012;2024-03-22T17:10:08;9.20;99.90
20858;DHT22;10589;53.636;10.012;2024-03-22T17:12:35;9.00;99.90
20858;DHT22;10589;53.636;10.012;2024-03-22T17:15:00;9.10;99.90
20858;DHT22;10589;53.636;10.012;2024-03-22T17:17:29;9.10;99.90
20858;DHT22;10589;53.636;10.012;2024-03-22T17:19:54;9.20;99.90
20858;DHT22;10589;53.636;10.012;2024-03-22T17:22:20;9.10;99.90
20858;DHT22;10589;53.636;10.012;2024-03-22T17:24:45;9.10;99.90
20858;DHT22;10589;53.636;10.012;2024-03-22T17:27:11;9.00;99.90
20858;DHT22;10589;53.636;10.012;2024-03-22T17:29:37;9.00;99.90
20858;DHT22;10589;53.636;10.012;2024-03-22T17:32:04;9.00;99.90
20858;DHT22;10589;53.636;10.012;2024-03-22T17:34:30;9.00;99.90
20858;DHT22;10589;53.636;10.012;2024-03-22T17:36:56;8.90;99.90
20858;DHT22;10589;53.636;10.012;2024-03-22T17:39:21;9.00;99.90
20858;DHT22;10589;53.636;10.012;2024-03-22T17:41:47;8.90;99.90
20858;DHT22;10589;53.636;10.012;2024-03-22T17:44:13;8.80;99.90
20858;DHT22;10589;53.636;10.012;2024-03-22T17:46:38;9.00;99.90
20858;DHT22;10589;53.636;10.012;2024-03-22T17:49:04;9.00;99.90
20858;DHT22;10589;53.636;10.012;2024-03-22T17:51:29;9.00;99.90
20858;DHT22;10589;53.636;10.012;2024-03-22T17:53:55;9.00;99.90
20858;DHT22;10589;53.636;10.012;2024-03-22T17:56:21;9.00;99.90
20858;DHT22;10589;53.636;10.012;2024-03-22T17:58:47;8.90;99.90
20858;DHT22;10589;53.636;10.012;2024-03-22T18:01:12;8.90;99.90
20858;DHT22;10589;53.636;10.012;2024-03-22T18:03:38;8.90;99.90
20858;DHT22;10589;53.636;10.012;2024-03-22T18:06:06;9.00;99.90
20858;DHT22;10589;53.636;10.012;2024-03-22T18:08:33;9.00;99.90
20858;DHT22;10589;53.636;10.012;2024-03-22T18:11:01;9.00;99.90
20858;DHT22;10589;53.636;10.012;2024-03-22T18:13:28;9.00;99.90
20858;DHT22;10589;53.636;10.012;2024-03-22T18:15:53;9.00;99.90
20858;DHT22;10589;53.636;10.012;2024-03-22T18:18:20;9.00;99.90
20858;DHT22;10589;53.636;10.012;2024-03-22T18:20:45;9.00;99.90
20858;DHT22;10589;53.636;10.012;2024-03-22T18:23:15;9.00;99.90
20858;DHT22;10589;53.636;10.012;2024-03-22T18:25:45;9.10;99.90
20858;DHT22;10589;53.636;10.012;2024-03-22T18:28:13;9.10;99.90
20858;DHT22;10589;53.636;10.012;2024-03-22T18:30:39;9.00;99.90
20858;DHT22;10589;53.636;10.012;2024-03-22T18:33:04;9.10;99.90
20858;DHT22;10589;53.636;10.012;2024-03-22T18:35:30;9.10;99.90
20858;DHT22;10589;53.636;10.012;2024-03-22T18:37:56;9.00;99.90
20858;DHT22;10589;53.636;10.012;2024-03-22T18:40:21;9.00;99.90
20858;DHT22;10589;53.636;10.012;2024-03-22T18:42:47;8.90;99.90
20858;DHT22;10589;53.636;10.012;2024-03-22T18:45:13;8.90;99.90
20858;DHT22;10589;53.636;10.012;2024-03-22T18:47:38;8.80;99.90
20858;DHT22;10589;53.636;10.012;2024-03-22T18:50:04;8.70;99.90
20858;DHT22;10589;53.636;10.012;2024-03-22T18:52:30;8.90;99.90
20858;DHT22;10589;53.636;10.012;2024-03-22T18:54:57;8.70;99.90
20858;DHT22;10589;53.636;10.012;2024-03-22T18:57:26;8.70;99.90
20858;DHT22;10589;53.636;10.012;2024-03-22T18:59:52;8.70;99.90
20858;DHT22;10589;53.636;10.012;2024-03-22T19:02:18;8.60;99.90
20858;DHT22;10589;53.636;10.012;2024-03-22T19:04:43;8.60;99.90
20858;DHT22;10589;53.636;10.012;2024-03-22T19:07:09;8.70;99.90
20858;DHT22;10589;53.636;10.012;2024-03-22T19:09:35;8.60;99.90
20858;DHT22;10589;53.636;10.012;2024-03-22T19:12:00;8.50;99.90
20858;DHT22;10589;53.636;10.012;2024-03-22T19:14:26;8.70;99.90
20858;DHT22;10589;53.636;10.012;2024-03-22T19:16:52;8.50;99.90
20858;DHT22;10589;53.636;10.012;2024-03-22T19:19:17;8.50;99.90
20858;DHT22;10589;53.636;10.012;2024-03-22T19:21:44;8.40;99.90
20858;DHT22;10589;53.636;10.012;2024-03-22T19:24:10;8.40;99.90
20858;DHT22;10589;53.636;10.012;2024-03-22T19:26:36;8.40;99.90
20858;DHT22;10589;53.636;10.012;2024-03-22T19:29:07;8.50;99.90
20858;DHT22;10589;53.636;10.012;2024-03-22T19:31:35;8.50;99.90
20858;DHT22;10589;53.636;10.012;2024-03-22T19:34:02;8.40;99.90
20858;DHT22;10589;53.636;10.012;2024-03-22T19:36:28;8.40;99.90
20858;DHT22;10589;53.636;10.012;2024-03-22T19:38:53;8.40;99.90
20858;DHT22;10589;53.636;10.012;2024-03-22T19:41:20;8.30;99.90
20858;DHT22;10589;53.636;10.012;2024-03-22T19:43:46;8.40;99.90
20858;DHT22;10589;53.636;10.012;2024-03-22T19:46:11;8.50;99.90
20858;DHT22;10589;53.636;10.012;2024-03-22T19:48:37;8.50;99.90
20858;DHT22;10589;53.636;10.012;2024-03-22T19:51:04;8.50;99.90
20858;DHT22;10589;53.636;10.012;2024-03-22T19:53:32;8.40;99.90
20858;DHT22;10589;53.636;10.012;2024-03-22T19:55:58;8.40;99.90
20858;DHT22;10589;53.636;10.012;2024-03-22T19:58:24;8.40;99.90
20858;DHT22;10589;53.636;10.012;2024-03-22T20:00:57;8.30;99.90
20858;DHT22;10589;53.636;10.012;2024-03-22T20:03:23;8.40;99.90